Terminal Aerodrome Forecast
Issued by NWS

Home | Current Version | Previous Version | Text Only | Print | Product List | Glossary Off
Versions: 1 2 3 4 5 6 7 8 9 10 11 12 13 14 15 16 17 18

000
FTUS43 KTOP 151147
TAFFOE
TAF
KFOE 151147Z 1512/1612 07004KT 4SM BR OVC008
      TEMPO 1512/1516 2SM -FZRA BR OVC005
     FM151600 09005KT 3SM -FZRA BR OVC006
      TEMPO 1521/1601 RA OVC004
     FM160200 08005KT 3SM RA BR OVC003=

USA.gov is the U.S. government's official web portal to all federal, state and local government web resources and services.